sensor_id;sensor_type;location;lat;lon;timestamp;pressure;altitude;pressure_sealevel;temperature;humidity
57234;BME280;43090;52.604;13.318;2024-02-26T00:01:49;99830.50;;;1.15;100.00
57234;BME280;43090;52.604;13.318;2024-02-26T00:04:16;99876.81;;;1.59;100.00
57234;BME280;43090;52.604;13.318;2024-02-26T00:06:43;99821.50;;;1.38;100.00
57234;BME280;43090;52.604;13.318;2024-02-26T00:09:10;99848.09;;;1.53;100.00
57234;BME280;43090;52.604;13.318;2024-02-26T00:11:37;99812.88;;;1.35;100.00
57234;BME280;43090;52.604;13.318;2024-02-26T00:14:04;99837.91;;;1.45;100.00
57234;BME280;43090;52.604;13.318;2024-02-26T00:16:31;99830.22;;;1.21;100.00
57234;BME280;43090;52.604;13.318;2024-02-26T00:18:58;99815.75;;;1.11;100.00
57234;BME280;43090;52.604;13.318;2024-02-26T00:21:25;99809.41;;;1.15;100.00
57234;BME280;43090;52.604;13.318;2024-02-26T00:23:53;99835.22;;;1.27;100.00
57234;BME280;43090;52.604;13.318;2024-02-26T00:26:19;99853.94;;;1.40;100.00
57234;BME280;43090;52.604;13.318;2024-02-26T00:28:46;99852.75;;;1.28;100.00
57234;BME280;43090;52.604;13.318;2024-02-26T00:31:13;99818.66;;;0.86;100.00
57234;BME280;43090;52.604;13.318;2024-02-26T00:33:39;99816.81;;;0.88;100.00
57234;BME280;43090;52.604;13.318;2024-02-26T00:36:06;99806.63;;;0.80;100.00
57234;BME280;43090;52.604;13.318;2024-02-26T00:38:33;99822.09;;;1.07;100.00
57234;BME280;43090;52.604;13.318;2024-02-26T00:41:00;99821.53;;;1.19;100.00
57234;BME280;43090;52.604;13.318;2024-02-26T00:43:26;99842.06;;;1.31;100.00
57234;BME280;43090;52.604;13.318;2024-02-26T00:45:53;99839.84;;;1.22;100.00
57234;BME280;43090;52.604;13.318;2024-02-26T00:48:19;99838.84;;;1.25;100.00
57234;BME280;43090;52.604;13.318;2024-02-26T00:50:46;99800.97;;;0.69;100.00
57234;BME280;43090;52.604;13.318;2024-02-26T00:53:13;99838.13;;;1.02;100.00
57234;BME280;43090;52.604;13.318;2024-02-26T00:55:40;99818.66;;;0.86;100.00
57234;BME280;43090;52.604;13.318;2024-02-26T00:58:06;99838.50;;;1.32;100.00
57234;BME280;43090;52.604;13.318;2024-02-26T01:00:36;99812.78;;;0.99;100.00
57234;BME280;43090;52.604;13.318;2024-02-26T01:03:02;99842.13;;;1.11;100.00
57234;BME280;43090;52.604;13.318;2024-02-26T01:05:30;99833.22;;;1.13;100.00
57234;BME280;43090;52.604;13.318;2024-02-26T01:07:59;99838.81;;;1.44;100.00
57234;BME280;43090;52.604;13.318;2024-02-26T01:10:29;99843.19;;;1.07;100.00
57234;BME280;43090;52.604;13.318;2024-02-26T01:12:55;99783.97;;;0.95;100.00
57234;BME280;43090;52.604;13.318;2024-02-26T01:15:22;99784.75;;;1.16;100.00
57234;BME280;43090;52.604;13.318;2024-02-26T01:17:50;99812.41;;;1.07;100.00
57234;BME280;43090;52.604;13.318;2024-02-26T01:20:18;99796.00;;;1.00;100.00
57234;BME280;43090;52.604;13.318;2024-02-26T01:22:44;99834.06;;;1.33;100.00
57234;BME280;43090;52.604;13.318;2024-02-26T01:25:12;99802.91;;;1.03;100.00
57234;BME280;43090;52.604;13.318;2024-02-26T01:27:39;99790.97;;;0.77;100.00
57234;BME280;43090;52.604;13.318;2024-02-26T01:30:08;99811.13;;;0.97;100.00
57234;BME280;43090;52.604;13.318;2024-02-26T01:32:35;99819.03;;;1.16;100.00
57234;BME280;43090;52.604;13.318;2024-02-26T01:35:03;99799.31;;;0.87;100.00
57234;BME280;43090;52.604;13.318;2024-02-26T01:37:36;99789.16;;;0.96;100.00
57234;BME280;43090;52.604;13.318;2024-02-26T01:40:03;99803.44;;;0.92;100.00
57234;BME280;43090;52.604;13.318;2024-02-26T01:42:30;99815.41;;;0.99;100.00
57234;BME280;43090;52.604;13.318;2024-02-26T01:44:59;99823.53;;;1.14;99.47
57234;BME280;43090;52.604;13.318;2024-02-26T01:47:29;99818.69;;;1.05;99.05
57234;BME280;43090;52.604;13.318;2024-02-26T01:49:57;99769.53;;;0.65;100.00
57234;BME280;43090;52.604;13.318;2024-02-26T01:52:24;99779.22;;;0.65;100.00
57234;BME280;43090;52.604;13.318;2024-02-26T01:54:51;99779.84;;;0.70;100.00
57234;BME280;43090;52.604;13.318;2024-02-26T01:57:17;99822.09;;;1.07;100.00
57234;BME280;43090;52.604;13.318;2024-02-26T01:59:45;99775.03;;;0.40;100.00
57234;BME280;43090;52.604;13.318;2024-02-26T02:02:12;99791.41;;;0.68;100.00
57234;BME280;43090;52.604;13.318;2024-02-26T02:04:41;99804.34;;;0.72;100.00
57234;BME280;43090;52.604;13.318;2024-02-26T02:07:08;99772.34;;;0.61;100.00
57234;BME280;43090;52.604;13.318;2024-02-26T02:09:35;99805.56;;;0.65;100.00
57234;BME280;43090;52.604;13.318;2024-02-26T02:12:07;99809.69;;;0.90;100.00
57234;BME280;43090;52.604;13.318;2024-02-26T02:14:33;99815.34;;;1.01;100.00
57234;BME280;43090;52.604;13.318;2024-02-26T02:17:00;99799.41;;;0.64;100.00
57234;BME280;43090;52.604;13.318;2024-02-26T02:19:27;99796.81;;;0.83;100.00
57234;BME280;43090;52.604;13.318;2024-02-26T02:21:54;99831.25;;;0.79;99.86
57234;BME280;43090;52.604;13.318;2024-02-26T02:24:20;99781.69;;;0.28;100.00
57234;BME280;43090;52.604;13.318;2024-02-26T02:26:47;99809.09;;;0.64;100.00
57234;BME280;43090;52.604;13.318;2024-02-26T02:29:14;99775.81;;;0.42;100.00
57234;BME280;43090;52.604;13.318;2024-02-26T02:46:30;99784.03;;;-0.48;100.00
57234;BME280;43090;52.604;13.318;2024-02-26T02:48:57;99787.22;;;-0.19;100.00
57234;BME280;43090;52.604;13.318;2024-02-26T02:51:27;99810.53;;;0.31;100.00
57234;BME280;43090;52.604;13.318;2024-02-26T02:53:55;99787.13;;;0.25;100.00
57234;BME280;43090;52.604;13.318;2024-02-26T02:56:22;99783.78;;;0.41;100.00
57234;BME280;43090;52.604;13.318;2024-02-26T02:58:51;99828.63;;;0.79;100.00
57234;BME280;43090;52.604;13.318;2024-02-26T03:01:18;99843.13;;;0.69;100.00
57234;BME280;43090;52.604;13.318;2024-02-26T03:03:52;99808.75;;;0.32;100.00
57234;BME280;43090;52.604;13.318;2024-02-26T03:06:19;99796.03;;;0.42;100.00
57234;BME280;43090;52.604;13.318;2024-02-26T03:08:47;99797.75;;;0.43;100.00
57234;BME280;43090;52.604;13.318;2024-02-26T03:11:15;99788.81;;;0.26;100.00
57234;BME280;43090;52.604;13.318;2024-02-26T03:13:42;99826.00;;;0.39;100.00
57234;BME280;43090;52.604;13.318;2024-02-26T03:16:09;99797.69;;;0.44;100.00
57234;BME280;43090;52.604;13.318;2024-02-26T03:18:41;99820.25;;;0.50;100.00
57234;BME280;43090;52.604;13.318;2024-02-26T03:21:08;99827.09;;;0.54;100.00
57234;BME280;43090;52.604;13.318;2024-02-26T03:23:35;99837.78;;;0.70;100.00
57234;BME280;43090;52.604;13.318;2024-02-26T03:26:08;99808.94;;;0.48;100.00
57234;BME280;43090;52.604;13.318;2024-02-26T03:28:40;99849.22;;;0.90;100.00
57234;BME280;43090;52.604;13.318;2024-02-26T03:31:07;99805.97;;;0.56;100.00
57234;BME280;43090;52.604;13.318;2024-02-26T03:33:34;99828.28;;;0.68;100.00
57234;BME280;43090;52.604;13.318;2024-02-26T03:36:05;99821.78;;;0.75;100.00
57234;BME280;43090;52.604;13.318;2024-02-26T03:38:34;99809.84;;;0.68;100.00
57234;BME280;43090;52.604;13.318;2024-02-26T03:41:01;99807.63;;;0.58;100.00
57234;BME280;43090;52.604;13.318;2024-02-26T03:43:48;99839.59;;;0.70;100.00
57234;BME280;43090;52.604;13.318;2024-02-26T03:46:18;99795.34;;;0.18;100.00
57234;BME280;43090;52.604;13.318;2024-02-26T03:48:45;99801.56;;;0.36;100.00
57234;BME280;43090;52.604;13.318;2024-02-26T03:51:22;99808.75;;;0.32;100.00
57234;BME280;43090;52.604;13.318;2024-02-26T03:53:57;99801.13;;;0.26;100.00
57234;BME280;43090;52.604;13.318;2024-02-26T03:57:32;99830.41;;;0.39;100.00
57234;BME280;43090;52.604;13.318;2024-02-26T04:00:07;99803.91;;;0.23;100.00
57234;BME280;43090;52.604;13.318;2024-02-26T04:02:39;99840.81;;;0.42;100.00
57234;BME280;43090;52.604;13.318;2024-02-26T04:05:10;99835.53;;;0.42;100.00
57234;BME280;43090;52.604;13.318;2024-02-26T04:07:50;99854.41;;;0.52;100.00
57234;BME280;43090;52.604;13.318;2024-02-26T04:10:32;99838.16;;;0.42;100.00
57234;BME280;43090;52.604;13.318;2024-02-26T04:13:02;99829.28;;;0.44;100.00
57234;BME280;43090;52.604;13.318;2024-02-26T04:15:36;99828.09;;;0.31;100.00
57234;BME280;43090;52.604;13.318;2024-02-26T04:18:05;99832.25;;;0.37;100.00
57234;BME280;43090;52.604;13.318;2024-02-26T04:20:32;99847.78;;;0.43;100.00
57234;BME280;43090;52.604;13.318;2024-02-26T04:22:59;99828.94;;;0.31;100.00
57234;BME280;43090;52.604;13.318;2024-02-26T04:25:30;99832.78;;;0.24;100.00
57234;BME280;43090;52.604;13.318;2024-02-26T04:28:02;99849.84;;;0.36;100.00
57234;BME280;43090;52.604;13.318;2024-02-26T04:30:31;99840.06;;;0.38;100.00
57234;BME280;43090;52.604;13.318;2024-02-26T04:33:01;99845.63;;;0.32;100.00
57234;BME280;43090;52.604;13.318;2024-02-26T04:35:32;99828.56;;;0.20;100.00
57234;BME280;43090;52.604;13.318;2024-02-26T04:38:02;99846.59;;;0.50;100.00
57234;BME280;43090;52.604;13.318;2024-02-26T04:40:37;99866.75;;;0.51;100.00
57234;BME280;43090;52.604;13.318;2024-02-26T04:43:13;99878.22;;;0.29;100.00
57234;BME280;43090;52.604;13.318;2024-02-26T04:45:49;99852.97;;;0.24;100.00
57234;BME280;43090;52.604;13.318;2024-02-26T04:48:16;99897.56;;;0.49;100.00
57234;BME280;43090;52.604;13.318;2024-02-26T04:50:47;99880.19;;;0.24;100.00
57234;BME280;43090;52.604;13.318;2024-02-26T04:53:21;99852.66;;;0.11;100.00
57234;BME280;43090;52.604;13.318;2024-02-26T04:55:53;99849.88;;;0.14;100.00
57234;BME280;43090;52.604;13.318;2024-02-26T04:58:21;99865.22;;;0.25;100.00
57234;BME280;43090;52.604;13.318;2024-02-26T05:00:51;99868.38;;;0.33;100.00
57234;BME280;43090;52.604;13.318;2024-02-26T05:03:26;99854.19;;;0.37;100.00
57234;BME280;43090;52.604;13.318;2024-02-26T05:05:54;99876.28;;;0.33;100.00
57234;BME280;43090;52.604;13.318;2024-02-26T05:08:21;99869.38;;;0.30;100.00
57234;BME280;43090;52.604;13.318;2024-02-26T05:10:53;99865.56;;;0.38;100.00
57234;BME280;43090;52.604;13.318;2024-02-26T05:13:36;99906.06;;;0.35;100.00
57234;BME280;43090;52.604;13.318;2024-02-26T05:16:14;99906.84;;;0.37;100.00
57234;BME280;43090;52.604;13.318;2024-02-26T05:18:44;99896.50;;;0.32;100.00
57234;BME280;43090;52.604;13.318;2024-02-26T05:25:08;99887.88;;;0.29;100.00
57234;BME280;43090;52.604;13.318;2024-02-26T05:27:37;99882.69;;;0.48;100.00
57234;BME280;43090;52.604;13.318;2024-02-26T05:30:04;99906.91;;;0.56;100.00
57234;BME280;43090;52.604;13.318;2024-02-26T05:32:40;99889.72;;;0.47;100.00
57234;BME280;43090;52.604;13.318;2024-02-26T05:38:56;99900.63;;;0.38;100.00
57234;BME280;43090;52.604;13.318;2024-02-26T05:41:24;99894.13;;;0.26;100.00
57234;BME280;43090;52.604;13.318;2024-02-26T05:43:53;99923.50;;;0.38;100.00
57234;BME280;43090;52.604;13.318;2024-02-26T05:46:22;99920.88;;;0.58;100.00
57234;BME280;43090;52.604;13.318;2024-02-26T05:48:52;99901.63;;;0.15;100.00
57234;BME280;43090;52.604;13.318;2024-02-26T05:51:42;99896.22;;;-0.03;100.00
57234;BME280;43090;52.604;13.318;2024-02-26T05:54:17;99934.44;;;0.49;100.00
57234;BME280;43090;52.604;13.318;2024-02-26T05:56:53;99908.59;;;0.16;100.00
57234;BME280;43090;52.604;13.318;2024-02-26T05:59:42;99948.59;;;0.67;100.00
57234;BME280;43090;52.604;13.318;2024-02-26T06:02:11;99916.25;;;0.43;100.00
57234;BME280;43090;52.604;13.318;2024-02-26T06:04:38;99933.69;;;0.66;100.00
57234;BME280;43090;52.604;13.318;2024-02-26T06:07:09;99960.66;;;0.73;100.00
57234;BME280;43090;52.604;13.318;2024-02-26T06:09:51;99945.16;;;0.44;100.00
57234;BME280;43090;52.604;13.318;2024-02-26T06:12:23;99923.91;;;0.49;100.00
57234;BME280;43090;52.604;13.318;2024-02-26T06:14:56;99925.81;;;0.45;100.00
57234;BME280;43090;52.604;13.318;2024-02-26T06:17:24;99937.25;;;0.44;100.00
57234;BME280;43090;52.604;13.318;2024-02-26T06:20:06;99938.56;;;0.34;100.00
57234;BME280;43090;52.604;13.318;2024-02-26T06:22:44;99914.97;;;0.53;100.00
57234;BME280;43090;52.604;13.318;2024-02-26T06:25:22;99927.25;;;0.53;100.00
57234;BME280;43090;52.604;13.318;2024-02-26T06:27:58;99948.19;;;0.76;100.00
57234;BME280;43090;52.604;13.318;2024-02-26T06:30:33;99931.03;;;0.68;100.00
57234;BME280;43090;52.604;13.318;2024-02-26T06:33:04;99944.84;;;0.93;100.00
57234;BME280;43090;52.604;13.318;2024-02-26T06:40:02;99978.69;;;1.03;100.00
57234;BME280;43090;52.604;13.318;2024-02-26T07:17:12;100009.03;;;2.10;100.00
57234;BME280;43090;52.604;13.318;2024-02-26T07:19:56;99995.50;;;1.98;100.00
57234;BME280;43090;52.604;13.318;2024-02-26T07:26:21;100008.38;;;2.24;100.00
57234;BME280;43090;52.604;13.318;2024-02-26T07:29:12;100004.56;;;2.29;100.00
57234;BME280;43090;52.604;13.318;2024-02-26T07:31:39;100014.69;;;2.39;100.00
57234;BME280;43090;52.604;13.318;2024-02-26T07:34:09;99980.06;;;2.26;100.00
57234;BME280;43090;52.604;13.318;2024-02-26T07:36:43;100018.63;;;2.66;100.00
57234;BME280;43090;52.604;13.318;2024-02-26T07:46:26;100006.56;;;2.61;100.00
57234;BME280;43090;52.604;13.318;2024-02-26T07:49:25;100029.19;;;3.02;100.00
57234;BME280;43090;52.604;13.318;2024-02-26T07:51:58;99986.88;;;2.84;100.00
57234;BME280;43090;52.604;13.318;2024-02-26T07:57:46;99990.41;;;3.36;100.00
57234;BME280;43090;52.604;13.318;2024-02-26T08:00:18;99979.94;;;3.50;100.00
57234;BME280;43090;52.604;13.318;2024-02-26T08:02:56;99982.16;;;3.58;100.00
57234;BME280;43090;52.604;13.318;2024-02-26T08:06:02;99997.78;;;3.62;100.00
57234;BME280;43090;52.604;13.318;2024-02-26T08:09:05;99977.81;;;3.57;100.00
57234;BME280;43090;52.604;13.318;2024-02-26T08:15:34;99995.25;;;3.77;100.00
57234;BME280;43090;52.604;13.318;2024-02-26T08:18:23;99984.31;;;3.83;100.00
57234;BME280;43090;52.604;13.318;2024-02-26T08:20:53;99984.94;;;4.04;100.00
57234;BME280;43090;52.604;13.318;2024-02-26T08:23:47;100021.06;;;4.21;100.00
57234;BME280;43090;52.604;13.318;2024-02-26T08:26:35;99992.16;;;4.16;100.00
57234;BME280;43090;52.604;13.318;2024-02-26T08:29:18;99986.47;;;4.08;100.00
57234;BME280;43090;52.604;13.318;2024-02-26T08:32:05;100005.84;;;4.41;100.00
57234;BME280;43090;52.604;13.318;2024-02-26T08:34:36;99999.41;;;4.45;100.00
57234;BME280;43090;52.604;13.318;2024-02-26T08:37:06;100000.81;;;4.66;100.00
57234;BME280;43090;52.604;13.318;2024-02-26T08:39:35;100029.44;;;4.76;100.00
57234;BME280;43090;52.604;13.318;2024-02-26T08:42:13;100012.75;;;4.59;100.00
57234;BME280;43090;52.604;13.318;2024-02-26T08:44:54;100006.94;;;4.83;100.00
57234;BME280;43090;52.604;13.318;2024-02-26T08:47:24;100007.44;;;4.90;100.00
57234;BME280;43090;52.604;13.318;2024-02-26T08:49:55;99998.94;;;4.99;100.00
57234;BME280;43090;52.604;13.318;2024-02-26T08:52:24;100018.41;;;5.28;100.00
57234;BME280;43090;52.604;13.318;2024-02-26T08:55:06;99991.22;;;4.94;100.00
57234;BME280;43090;52.604;13.318;2024-02-26T08:57:40;100010.06;;;5.49;100.00
57234;BME280;43090;52.604;13.318;2024-02-26T09:00:33;99981.72;;;5.35;98.69
57234;BME280;43090;52.604;13.318;2024-02-26T09:03:01;99972.88;;;5.63;99.19
57234;BME280;43090;52.604;13.318;2024-02-26T09:05:31;100003.00;;;5.91;96.76
57234;BME280;43090;52.604;13.318;2024-02-26T09:07:59;99977.59;;;5.73;96.73
57234;BME280;43090;52.604;13.318;2024-02-26T09:10:25;100018.41;;;6.00;97.37
57234;BME280;43090;52.604;13.318;2024-02-26T09:12:55;100009.19;;;5.92;97.74
57234;BME280;43090;52.604;13.318;2024-02-26T09:15:24;100010.56;;;6.26;96.83
57234;BME280;43090;52.604;13.318;2024-02-26T09:17:51;99989.31;;;6.26;94.99
57234;BME280;43090;52.604;13.318;2024-02-26T09:20:20;99986.78;;;6.38;95.20
57234;BME280;43090;52.604;13.318;2024-02-26T09:22:50;99984.72;;;6.56;93.95
57234;BME280;43090;52.604;13.318;2024-02-26T09:25:17;99987.59;;;6.53;93.36
57234;BME280;43090;52.604;13.318;2024-02-26T09:27:44;100002.75;;;6.78;92.38
57234;BME280;43090;52.604;13.318;2024-02-26T09:30:12;99982.75;;;6.85;91.48
57234;BME280;43090;52.604;13.318;2024-02-26T09:32:46;100002.69;;;6.92;93.40
57234;BME280;43090;52.604;13.318;2024-02-26T09:35:13;99989.69;;;6.75;90.68
57234;BME280;43090;52.604;13.318;2024-02-26T09:37:40;100008.13;;;7.04;90.98
57234;BME280;43090;52.604;13.318;2024-02-26T09:40:07;100022.31;;;7.17;89.02
57234;BME280;43090;52.604;13.318;2024-02-26T09:42:37;100008.47;;;7.25;87.32
57234;BME280;43090;52.604;13.318;2024-02-26T09:45:05;100026.84;;;7.02;88.26
57234;BME280;43090;52.604;13.318;2024-02-26T09:47:36;100019.09;;;6.99;89.59
57234;BME280;43090;52.604;13.318;2024-02-26T09:57:45;100025.09;;;7.28;89.86
57234;BME280;43090;52.604;13.318;2024-02-26T10:00:18;100003.78;;;7.28;89.51
57234;BME280;43090;52.604;13.318;2024-02-26T10:02:48;100003.25;;;7.36;89.54
57234;BME280;43090;52.604;13.318;2024-02-26T10:05:19;100024.84;;;7.06;87.29
57234;BME280;43090;52.604;13.318;2024-02-26T10:07:46;100014.44;;;7.28;88.81
57234;BME280;43090;52.604;13.318;2024-02-26T10:10:14;100012.94;;;7.50;85.01
57234;BME280;43090;52.604;13.318;2024-02-26T10:16:41;100014.63;;;7.77;84.79
57234;BME280;43090;52.604;13.318;2024-02-26T10:31:23;100011.91;;;8.03;81.40
57234;BME280;43090;52.604;13.318;2024-02-26T10:34:16;100011.09;;;8.26;80.27
57234;BME280;43090;52.604;13.318;2024-02-26T10:36:46;100021.06;;;8.36;80.41
57234;BME280;43090;52.604;13.318;2024-02-26T10:39:26;100013.91;;;8.73;79.35
57234;BME280;43090;52.604;13.318;2024-02-26T10:42:26;100024.50;;;8.86;77.52
57234;BME280;43090;52.604;13.318;2024-02-26T10:45:08;100037.00;;;9.21;74.88
57234;BME280;43090;52.604;13.318;2024-02-26T10:51:29;100031.22;;;8.92;76.46
57234;BME280;43090;52.604;13.318;2024-02-26T10:53:58;100038.41;;;9.14;77.10
57234;BME280;43090;52.604;13.318;2024-02-26T10:56:34;100011.00;;;9.12;73.46
57234;BME280;43090;52.604;13.318;2024-02-26T10:59:06;99999.50;;;9.45;72.92
57234;BME280;43090;52.604;13.318;2024-02-26T11:01:48;100013.25;;;9.41;72.05
57234;BME280;43090;52.604;13.318;2024-02-26T11:04:16;100020.03;;;9.45;72.38
57234;BME280;43090;52.604;13.318;2024-02-26T11:10:35;100015.41;;;9.70;70.11
57234;BME280;43090;52.604;13.318;2024-02-26T11:13:36;100015.53;;;9.68;67.82
57234;BME280;43090;52.604;13.318;2024-02-26T11:16:23;100012.72;;;9.24;70.76
57234;BME280;43090;52.604;13.318;2024-02-26T11:18:57;100005.22;;;9.41;69.15
57234;BME280;43090;52.604;13.318;2024-02-26T11:21:37;100010.22;;;9.57;68.62
57234;BME280;43090;52.604;13.318;2024-02-26T11:24:11;100008.50;;;9.90;68.19
57234;BME280;43090;52.604;13.318;2024-02-26T11:33:59;100022.97;;;9.53;65.54
57234;BME280;43090;52.604;13.318;2024-02-26T11:36:34;100042.03;;;9.82;65.82
57234;BME280;43090;52.604;13.318;2024-02-26T11:39:11;100035.09;;;9.80;64.83
57234;BME280;43090;52.604;13.318;2024-02-26T11:42:07;100013.69;;;9.34;65.13
57234;BME280;43090;52.604;13.318;2024-02-26T11:52:21;100012.34;;;10.20;63.75
57234;BME280;43090;52.604;13.318;2024-02-26T11:55:02;100038.31;;;10.52;63.07
57234;BME280;43090;52.604;13.318;2024-02-26T12:05:01;100026.59;;;10.20;63.93
57234;BME280;43090;52.604;13.318;2024-02-26T12:07:30;100023.31;;;10.05;62.90
57234;BME280;43090;52.604;13.318;2024-02-26T12:10:27;100020.97;;;10.34;62.13
57234;BME280;43090;52.604;13.318;2024-02-26T12:13:00;100026.03;;;10.60;63.79
57234;BME280;43090;52.604;13.318;2024-02-26T12:15:54;100032.25;;;10.49;62.06
57234;BME280;43090;52.604;13.318;2024-02-26T12:18:29;100034.78;;;10.62;63.25
57234;BME280;43090;52.604;13.318;2024-02-26T12:21:02;100046.88;;;10.78;60.53
57234;BME280;43090;52.604;13.318;2024-02-26T12:23:38;100011.84;;;10.81;60.83
57234;BME280;43090;52.604;13.318;2024-02-26T12:29:14;100042.81;;;10.62;60.51
57234;BME280;43090;52.604;13.318;2024-02-26T12:31:51;100037.13;;;10.77;58.12
57234;BME280;43090;52.604;13.318;2024-02-26T12:34:22;100031.19;;;11.06;57.97
57234;BME280;43090;52.604;13.318;2024-02-26T12:37:06;100026.09;;;10.70;57.01
57234;BME280;43090;52.604;13.318;2024-02-26T12:39:48;100012.88;;;10.90;58.26
57234;BME280;43090;52.604;13.318;2024-02-26T12:42:18;100037.72;;;11.34;57.73
57234;BME280;43090;52.604;13.318;2024-02-26T12:44:49;100034.59;;;11.08;56.66
57234;BME280;43090;52.604;13.318;2024-02-26T12:47:42;100032.22;;;11.14;53.92
57234;BME280;43090;52.604;13.318;2024-02-26T12:50:13;100050.59;;;11.19;53.54
57234;BME280;43090;52.604;13.318;2024-02-26T12:52:46;100036.13;;;10.89;52.83
57234;BME280;43090;52.604;13.318;2024-02-26T12:55:29;100024.28;;;10.71;51.96
57234;BME280;43090;52.604;13.318;2024-02-26T13:02:13;100009.63;;;10.42;51.33
57234;BME280;43090;52.604;13.318;2024-02-26T13:05:13;100040.59;;;10.67;51.25
57234;BME280;43090;52.604;13.318;2024-02-26T13:07:52;100032.53;;;10.79;51.45
57234;BME280;43090;52.604;13.318;2024-02-26T13:10:22;100024.34;;;10.80;49.78
57234;BME280;43090;52.604;13.318;2024-02-26T13:12:49;100011.53;;;10.63;49.00
57234;BME280;43090;52.604;13.318;2024-02-26T13:15:28;100024.75;;;10.76;48.56
57234;BME280;43090;52.604;13.318;2024-02-26T13:18:17;100007.53;;;10.57;48.90
57234;BME280;43090;52.604;13.318;2024-02-26T13:21:19;100036.34;;;10.97;49.23
57234;BME280;43090;52.604;13.318;2024-02-26T13:23:57;100009.41;;;10.99;48.50
57234;BME280;43090;52.604;13.318;2024-02-26T13:26:29;100033.63;;;10.76;49.12
57234;BME280;43090;52.604;13.318;2024-02-26T13:29:05;100030.72;;;11.00;48.95
57234;BME280;43090;52.604;13.318;2024-02-26T13:31:40;100031.97;;;11.17;49.71
57234;BME280;43090;52.604;13.318;2024-02-26T13:34:13;100025.13;;;10.71;50.10
57234;BME280;43090;52.604;13.318;2024-02-26T13:36:50;100024.19;;;10.93;50.27
57234;BME280;43090;52.604;13.318;2024-02-26T13:39:38;100013.16;;;11.08;50.53
57234;BME280;43090;52.604;13.318;2024-02-26T13:42:07;100022.25;;;10.95;49.55
57234;BME280;43090;52.604;13.318;2024-02-26T13:44:34;100030.41;;;11.15;50.03
57234;BME280;43090;52.604;13.318;2024-02-26T13:47:09;100025.94;;;11.04;48.99
57234;BME280;43090;52.604;13.318;2024-02-26T13:49:43;100028.94;;;10.90;48.90
57234;BME280;43090;52.604;13.318;2024-02-26T13:52:10;100049.69;;;11.09;47.97
57234;BME280;43090;52.604;13.318;2024-02-26T13:54:37;100023.13;;;10.52;49.69
57234;BME280;43090;52.604;13.318;2024-02-26T13:57:08;100027.72;;;10.61;48.30
57234;BME280;43090;52.604;13.318;2024-02-26T13:59:35;100031.94;;;10.96;49.08
57234;BME280;43090;52.604;13.318;2024-02-26T14:02:02;100067.13;;;11.24;49.87
57234;BME280;43090;52.604;13.318;2024-02-26T14:04:29;100043.44;;;10.87;51.86
57234;BME280;43090;52.604;13.318;2024-02-26T14:07:03;100069.28;;;11.09;52.23
57234;BME280;43090;52.604;13.318;2024-02-26T14:09:31;100034.25;;;11.01;52.88
57234;BME280;43090;52.604;13.318;2024-02-26T14:12:14;100041.09;;;10.94;52.82
57234;BME280;43090;52.604;13.318;2024-02-26T14:14:40;100081.31;;;10.82;53.44
57234;BME280;43090;52.604;13.318;2024-02-26T14:17:09;100055.59;;;10.47;53.12
57234;BME280;43090;52.604;13.318;2024-02-26T14:19:38;100084.88;;;11.04;52.89
57234;BME280;43090;52.604;13.318;2024-02-26T14:22:47;100099.78;;;10.97;52.83
57234;BME280;43090;52.604;13.318;2024-02-26T14:25:22;100064.84;;;10.55;54.61
57234;BME280;43090;52.604;13.318;2024-02-26T14:27:50;100081.75;;;10.55;53.85
57234;BME280;43090;52.604;13.318;2024-02-26T14:30:17;100112.97;;;10.77;54.81
57234;BME280;43090;52.604;13.318;2024-02-26T14:32:44;100083.59;;;10.55;54.33
57234;BME280;43090;52.604;13.318;2024-02-26T14:35:25;100091.75;;;10.53;54.52
57234;BME280;43090;52.604;13.318;2024-02-26T14:41:35;100089.81;;;10.44;54.55
57234;BME280;43090;52.604;13.318;2024-02-26T14:47:30;100101.84;;;10.38;56.38
57234;BME280;43090;52.604;13.318;2024-02-26T14:59:05;100142.69;;;10.29;57.67
57234;BME280;43090;52.604;13.318;2024-02-26T15:01:57;100136.66;;;10.38;56.63
57234;BME280;43090;52.604;13.318;2024-02-26T15:04:33;100122.88;;;10.09;56.38
57234;BME280;43090;52.604;13.318;2024-02-26T15:18:16;100157.03;;;10.05;56.62
57234;BME280;43090;52.604;13.318;2024-02-26T15:27:32;100132.81;;;9.84;58.30
57234;BME280;43090;52.604;13.318;2024-02-26T15:30:44;100128.47;;;9.83;58.83
57234;BME280;43090;52.604;13.318;2024-02-26T15:33:11;100163.09;;;9.96;59.49
57234;BME280;43090;52.604;13.318;2024-02-26T15:35:40;100162.16;;;10.08;59.30
57234;BME280;43090;52.604;13.318;2024-02-26T15:38:06;100151.56;;;10.07;59.31
57234;BME280;43090;52.604;13.318;2024-02-26T15:40:56;100137.56;;;9.92;59.71
57234;BME280;43090;52.604;13.318;2024-02-26T15:43:23;100164.91;;;9.73;61.50
57234;BME280;43090;52.604;13.318;2024-02-26T15:45:50;100152.50;;;9.72;60.46
57234;BME280;43090;52.604;13.318;2024-02-26T15:48:19;100169.56;;;10.05;60.16
57234;BME280;43090;52.604;13.318;2024-02-26T15:50:49;100157.59;;;9.63;61.88
57234;BME280;43090;52.604;13.318;2024-02-26T15:54:09;100154.28;;;9.60;62.85
57234;BME280;43090;52.604;13.318;2024-02-26T16:33:18;100204.00;;;9.14;70.54
57234;BME280;43090;52.604;13.318;2024-02-26T16:40:22;100182.38;;;8.69;73.52
57234;BME280;43090;52.604;13.318;2024-02-26T16:46:15;100239.66;;;8.89;75.17
57234;BME280;43090;52.604;13.318;2024-02-26T16:49:43;100214.41;;;8.43;76.55
57234;BME280;43090;52.604;13.318;2024-02-26T16:57:14;100219.56;;;8.59;75.90
57234;BME280;43090;52.604;13.318;2024-02-26T17:04:06;100258.81;;;8.70;77.59
57234;BME280;43090;52.604;13.318;2024-02-26T17:06:34;100224.25;;;8.55;77.66
57234;BME280;43090;52.604;13.318;2024-02-26T17:09:03;100222.19;;;8.20;80.69